createdAt,value
2023-02-03T03:14:05.811Z,423.00
2023-02-03T03:16:05.775Z,424.00
2023-02-03T03:17:05.691Z,423.00
2023-02-03T03:18:05.688Z,423.00
2023-02-03T03:19:05.651Z,422.00
2023-02-03T03:20:05.652Z,421.00
2023-02-03T03:21:05.608Z,420.00
2023-02-03T03:22:05.598Z,421.00
2023-02-03T03:23:05.571Z,424.00
2023-02-03T03:24:05.563Z,424.00
2023-02-03T03:25:05.577Z,425.00
2023-02-03T03:26:05.486Z,426.00
2023-02-03T03:27:05.478Z,424.00
2023-02-03T03:28:05.536Z,423.00
2023-02-03T03:29:05.409Z,424.00
2023-02-03T03:30:05.443Z,424.00
2023-02-03T03:31:05.460Z,423.00
2023-02-03T03:32:05.447Z,421.00
2023-02-03T03:33:05.326Z,420.00
2023-02-03T03:34:05.287Z,420.00
2023-02-03T03:35:05.291Z,419.00
2023-02-03T03:36:05.256Z,419.00
2023-02-03T03:37:05.248Z,420.00
2023-02-03T03:38:05.235Z,421.00
2023-02-03T03:39:05.195Z,421.00
2023-02-03T03:40:05.200Z,421.00
2023-02-03T03:41:05.173Z,421.00
2023-02-03T03:42:05.173Z,420.00
2023-02-03T03:43:05.153Z,418.00
2023-02-03T03:44:05.095Z,420.00
2023-02-03T03:45:05.079Z,422.00
2023-02-03T03:46:05.096Z,422.00
2023-02-03T03:47:05.043Z,422.00
2023-02-03T03:48:05.033Z,424.00
2023-02-03T03:49:05.033Z,423.00
2023-02-03T03:50:04.975Z,425.00
2023-02-03T03:51:04.934Z,421.00
2023-02-03T03:52:04.935Z,419.00
2023-02-03T03:53:04.894Z,416.00
2023-02-03T03:54:04.905Z,417.00
2023-02-03T03:55:04.851Z,417.00
2023-02-03T03:56:04.829Z,419.00
2023-02-03T03:57:04.818Z,419.00
2023-02-03T03:58:04.792Z,417.00
2023-02-03T03:59:04.742Z,416.00
2023-02-03T04:00:04.731Z,418.00
2023-02-03T04:01:04.764Z,419.00
2023-02-03T04:02:05.126Z,421.00
2023-02-03T04:03:04.701Z,423.00
2023-02-03T04:04:04.607Z,421.00
2023-02-03T04:05:04.589Z,418.00
2023-02-03T04:06:04.566Z,418.00
2023-02-03T04:07:04.517Z,416.00
2023-02-03T04:08:04.542Z,418.00
2023-02-03T04:09:04.487Z,417.00
2023-02-03T04:10:04.466Z,415.00
2023-02-03T04:11:04.467Z,415.00
2023-02-03T04:12:04.427Z,413.00
2023-02-03T04:13:04.394Z,414.00
2023-02-03T04:14:04.404Z,416.00
2023-02-03T04:15:04.354Z,418.00
2023-02-03T04:16:04.368Z,421.00
2023-02-03T04:17:04.317Z,423.00
2023-02-03T04:18:04.273Z,424.00
2023-02-03T04:19:04.442Z,422.00
2023-02-03T04:20:04.225Z,424.00
2023-02-03T04:21:04.222Z,423.00
2023-02-03T04:22:04.188Z,419.00
2023-02-03T04:23:04.139Z,419.00
2023-02-03T04:24:04.219Z,421.00
2023-02-03T04:25:04.117Z,421.00
2023-02-03T04:26:04.088Z,420.00
2023-02-03T04:27:05.336Z,419.00
2023-02-03T04:29:04.024Z,422.00
2023-02-03T04:30:04.008Z,422.00
2023-02-03T04:31:04.087Z,421.00
2023-02-03T04:32:04.006Z,421.00
2023-02-03T04:33:03.924Z,424.00
2023-02-03T04:34:03.889Z,424.00
2023-02-03T04:55:03.278Z,418.00
2023-02-03T04:56:03.268Z,418.00
2023-02-03T04:57:03.215Z,419.00
2023-02-03T04:58:03.185Z,418.00
2023-02-03T04:59:03.138Z,421.00
2023-02-03T05:00:03.119Z,420.00
2023-02-03T05:01:03.164Z,421.00
2023-02-03T05:02:03.071Z,421.00
2023-02-03T05:03:03.076Z,418.00
2023-02-03T05:04:03.015Z,415.00
2023-02-03T05:05:02.978Z,415.00
2023-02-03T05:06:02.948Z,413.00
2023-02-03T05:07:02.937Z,414.00
2023-02-03T05:08:02.880Z,413.00
2023-02-03T05:09:02.856Z,413.00
2023-02-03T05:10:02.830Z,411.00
2023-02-03T05:11:03.534Z,413.00
2023-02-03T05:12:02.764Z,411.00
2023-02-03T05:13:02.754Z,412.00
2023-02-03T05:14:02.705Z,413.00
2023-02-03T05:15:02.687Z,415.00
2023-02-03T05:16:02.690Z,416.00
2023-02-03T05:17:02.638Z,415.00
2023-02-03T05:18:02.591Z,416.00
2023-02-03T05:19:02.545Z,415.00
2023-02-03T05:20:02.525Z,413.00
2023-02-03T05:21:02.510Z,411.00
2023-02-03T05:22:02.506Z,411.00
2023-02-03T05:23:02.455Z,412.00
2023-02-03T05:24:02.458Z,413.00
2023-02-03T05:25:02.417Z,413.00
2023-02-03T05:26:02.399Z,414.00
2023-02-03T05:27:02.369Z,414.00
2023-02-03T05:28:02.404Z,416.00
2023-02-03T05:29:02.311Z,416.00
2023-02-03T05:30:02.324Z,417.00
2023-02-03T05:31:02.313Z,418.00
2023-02-03T05:32:02.388Z,417.00
2023-02-03T05:33:02.230Z,420.00
2023-02-03T05:34:02.184Z,420.00
2023-02-03T05:35:02.195Z,420.00
2023-02-03T05:36:02.163Z,420.00
2023-02-03T05:37:02.148Z,420.00
2023-02-03T05:38:02.117Z,421.00
2023-02-03T05:39:02.335Z,418.00
2023-02-03T05:40:09.302Z,417.00
2023-02-03T05:41:02.037Z,416.00
2023-02-03T05:42:02.059Z,415.00
2023-02-03T05:43:01.972Z,415.00
2023-02-03T05:44:01.985Z,416.00
2023-02-03T05:45:01.957Z,416.00
2023-02-03T05:46:02.005Z,416.00
2023-02-03T05:47:01.947Z,417.00
2023-02-03T05:48:01.890Z,418.00
2023-02-03T05:49:01.875Z,419.00
2023-02-03T05:50:01.838Z,420.00
2023-02-03T05:51:01.806Z,420.00
2023-02-03T05:52:01.785Z,420.00
2023-02-03T05:53:01.751Z,421.00
2023-02-03T05:54:01.754Z,421.00
2023-02-03T05:55:01.721Z,419.00
2023-02-03T05:56:01.703Z,418.00
2023-02-03T05:57:01.685Z,417.00
2023-02-03T05:58:01.641Z,418.00
2023-02-03T05:59:01.627Z,419.00
2023-02-03T06:00:01.581Z,419.00
2023-02-03T06:01:01.582Z,414.00
2023-02-03T06:02:01.611Z,413.00
2023-02-03T06:03:01.628Z,413.00
2023-02-03T06:04:01.665Z,412.00
2023-02-03T06:05:01.473Z,411.00
2023-02-03T06:06:01.426Z,409.00
2023-02-03T06:07:01.403Z,412.00
2023-02-03T06:08:01.431Z,411.00
2023-02-03T06:09:02.101Z,413.00
2023-02-03T06:10:01.365Z,413.00
2023-02-03T06:11:01.313Z,415.00
2023-02-03T06:12:01.306Z,415.00
2023-02-03T06:13:01.248Z,415.00
2023-02-03T06:14:01.216Z,415.00
2023-02-03T06:15:01.216Z,413.00
2023-02-03T06:16:01.178Z,412.00
2023-02-03T06:17:01.202Z,412.00
2023-02-03T06:18:01.137Z,416.00
2023-02-03T06:19:01.193Z,415.00
2023-02-03T06:20:01.104Z,416.00
2023-02-03T06:21:01.056Z,416.00
2023-02-03T06:22:01.021Z,414.00
2023-02-03T06:23:01.008Z,412.00
2023-02-03T06:24:00.980Z,413.00
2023-02-03T06:25:00.972Z,413.00
2023-02-03T06:26:00.922Z,412.00
2023-02-03T06:27:00.891Z,415.00
2023-02-03T06:28:00.989Z,413.00
2023-02-03T06:51:01.365Z,792.00
2023-02-03T06:54:01.682Z,813.00
2023-02-03T06:56:01.072Z,829.00
2023-02-03T06:58:03.491Z,844.00
2023-02-03T06:59:02.121Z,851.00
2023-02-03T08:35:57.535Z,1371.00
2023-02-03T08:36:57.538Z,1371.00
2023-02-03T08:37:57.586Z,1374.00
2023-02-03T08:38:58.105Z,1376.00
2023-02-03T08:40:57.664Z,1358.00
2023-02-03T08:41:58.158Z,1354.00
2023-02-03T08:43:57.512Z,951.00
2023-02-03T08:44:57.715Z,888.00
2023-02-03T08:45:57.466Z,813.00
2023-02-03T08:46:58.119Z,741.00
2023-02-03T08:47:57.298Z,720.00
2023-02-03T08:48:57.390Z,673.00
2023-02-03T08:49:57.233Z,661.00
2023-02-03T08:50:57.223Z,718.00
2023-02-03T08:51:57.157Z,728.00
2023-02-03T08:52:57.151Z,727.00
2023-02-03T08:53:57.046Z,756.00
2023-02-03T08:55:57.120Z,821.00
2023-02-03T08:56:57.026Z,834.00
2023-02-03T08:57:56.981Z,848.00
2023-02-03T08:58:56.878Z,864.00
2023-02-03T08:59:56.850Z,903.00
2023-02-03T09:00:56.881Z,920.00
2023-02-03T09:01:56.956Z,933.00
2023-02-03T09:02:58.608Z,952.00
2023-02-03T09:04:57.364Z,963.00
2023-02-03T09:05:56.887Z,969.00
2023-02-03T09:06:56.637Z,971.00
2023-02-03T09:07:56.615Z,972.00
2023-02-03T09:08:56.639Z,966.00
2023-02-03T09:09:59.854Z,947.00
2023-02-03T09:10:56.778Z,948.00
2023-02-03T09:11:57.088Z,938.00
2023-02-03T09:13:56.656Z,893.00
2023-02-03T09:14:56.642Z,903.00
2023-02-03T09:15:56.284Z,913.00
2023-02-03T09:16:56.304Z,920.00
2023-02-03T09:18:03.243Z,926.00
2023-02-03T09:18:56.195Z,941.00
2023-02-03T09:19:56.206Z,938.00
2023-02-03T09:20:56.717Z,937.00
2023-02-03T09:21:56.096Z,942.00
2023-02-03T09:22:56.081Z,952.00
2023-02-03T09:25:56.089Z,991.00
2023-02-03T09:26:56.024Z,1005.00
2023-02-03T09:27:56.030Z,1024.00
2023-02-03T09:28:55.920Z,1039.00
2023-02-03T09:29:55.909Z,1047.00
2023-02-03T09:30:55.818Z,1085.00
2023-02-03T09:31:55.803Z,1125.00
2023-02-03T09:32:55.855Z,1135.00
2023-02-03T09:33:55.727Z,1208.00
2023-02-03T09:34:55.673Z,1190.00
2023-02-03T09:35:55.584Z,1193.00
2023-02-03T09:36:55.552Z,1205.00
2023-02-03T09:37:55.462Z,1209.00
2023-02-03T09:38:55.466Z,1222.00
2023-02-03T09:39:55.406Z,1257.00
2023-02-03T09:41:10.477Z,1276.00
2023-02-03T09:41:56.313Z,1289.00
2023-02-03T09:42:55.312Z,1303.00
2023-02-03T09:43:55.706Z,1340.00
2023-02-03T09:44:56.075Z,1347.00
2023-02-03T09:45:57.007Z,1345.00
2023-02-03T09:46:55.554Z,1349.00
2023-02-03T09:47:56.130Z,1349.00
2023-02-03T09:48:55.157Z,1335.00
2023-02-03T09:49:55.118Z,1294.00
2023-02-03T09:50:55.699Z,1243.00
2023-02-03T09:51:55.035Z,1211.00
2023-02-03T09:52:55.094Z,1100.00
2023-02-03T09:53:55.111Z,1028.00
2023-02-03T09:54:54.955Z,986.00
2023-02-03T09:55:54.983Z,977.00
2023-02-03T09:56:55.180Z,973.00
2023-02-03T09:57:54.765Z,967.00
2023-02-03T09:58:54.806Z,951.00
2023-02-03T09:59:54.812Z,931.00
2023-02-03T10:00:54.806Z,900.00
2023-02-03T10:01:54.638Z,866.00
2023-02-03T10:02:54.639Z,857.00
2023-02-03T10:03:54.616Z,849.00
2023-02-03T10:04:54.559Z,844.00
2023-02-03T10:05:54.454Z,841.00
2023-02-03T10:06:54.428Z,833.00
2023-02-03T10:07:55.240Z,821.00
2023-02-03T10:08:54.363Z,809.00
2023-02-03T10:09:54.324Z,799.00
2023-02-03T10:10:54.331Z,790.00
2023-02-03T10:11:54.240Z,783.00
2023-02-03T10:12:54.187Z,777.00
2023-02-03T10:13:54.151Z,768.00
2023-02-03T10:14:54.110Z,759.00
2023-02-03T10:15:54.100Z,754.00
2023-02-03T10:16:54.102Z,749.00
2023-02-03T10:17:54.029Z,744.00
2023-02-03T10:18:54.002Z,742.00
2023-02-03T10:19:53.927Z,737.00
2023-02-03T10:20:54.660Z,730.00
2023-02-03T10:21:54.260Z,729.00
2023-02-03T10:22:54.236Z,729.00
2023-02-03T10:23:54.653Z,723.00
2023-02-03T10:24:54.632Z,719.00
2023-02-03T10:25:55.207Z,713.00
2023-02-03T10:26:54.281Z,705.00
2023-02-03T10:27:53.703Z,700.00
2023-02-03T10:28:53.633Z,696.00
2023-02-03T10:29:53.628Z,695.00
2023-02-03T10:30:53.623Z,691.00
2023-02-03T10:31:54.740Z,685.00
2023-02-03T10:32:53.473Z,681.00
2023-02-03T10:33:54.112Z,678.00
2023-02-03T10:34:53.560Z,675.00
2023-02-03T10:35:53.467Z,675.00
2023-02-03T10:36:53.371Z,672.00
2023-02-03T10:37:53.411Z,669.00
2023-02-03T10:38:54.435Z,666.00
2023-02-03T10:39:53.190Z,664.00
2023-02-03T10:40:53.390Z,718.00
2023-02-03T10:41:53.248Z,608.00
2023-02-03T10:42:53.209Z,534.00
2023-02-03T10:43:53.159Z,514.00
2023-02-03T10:44:53.145Z,506.00
2023-02-03T10:45:53.406Z,583.00
2023-02-03T10:46:52.923Z,598.00
2023-02-03T10:47:53.025Z,600.00
2023-02-03T10:48:57.781Z,609.00
2023-02-03T10:49:53.884Z,622.00
2023-02-03T10:50:52.797Z,633.00
2023-02-03T10:51:52.869Z,638.00
2023-02-03T10:52:52.893Z,561.00
2023-02-03T10:53:53.121Z,536.00
2023-02-03T10:54:52.715Z,614.00
2023-02-03T10:55:52.577Z,643.00
2023-02-03T10:56:54.176Z,643.00
2023-02-03T10:57:52.696Z,726.00
2023-02-03T10:58:52.492Z,724.00
2023-02-03T10:59:52.537Z,737.00
2023-02-03T11:00:52.510Z,744.00
2023-02-03T11:01:52.590Z,771.00
2023-02-03T11:02:52.601Z,789.00
2023-02-03T11:03:53.150Z,806.00
2023-02-03T11:04:52.463Z,815.00
2023-02-03T11:05:53.358Z,825.00
2023-02-03T11:06:52.270Z,836.00
2023-02-03T11:07:52.163Z,842.00
2023-02-03T11:08:52.355Z,854.00
2023-02-03T11:09:52.490Z,855.00
2023-02-03T11:10:52.153Z,890.00
2023-02-03T11:11:52.096Z,876.00
2023-02-03T11:12:52.856Z,875.00
2023-02-03T11:13:52.815Z,871.00
2023-02-03T11:14:52.019Z,871.00
2023-02-03T11:15:52.169Z,873.00
2023-02-03T11:16:52.247Z,871.00
2023-02-03T11:17:51.837Z,871.00
2023-02-03T11:18:51.865Z,872.00
2023-02-03T11:19:51.808Z,876.00
2023-02-03T11:20:51.713Z,886.00
2023-02-03T11:21:53.339Z,900.00
2023-02-03T11:22:51.641Z,921.00
2023-02-03T11:23:51.649Z,933.00
2023-02-03T11:24:51.669Z,948.00
2023-02-03T11:25:51.563Z,961.00
2023-02-03T11:26:51.534Z,968.00
2023-02-03T11:27:51.633Z,984.00
2023-02-03T11:28:51.606Z,996.00
2023-02-03T11:29:51.355Z,997.00
2023-02-03T11:30:51.323Z,1018.00
2023-02-03T11:31:51.708Z,1034.00
2023-02-03T11:32:51.209Z,1049.00
2023-02-03T11:33:51.339Z,1072.00
2023-02-03T11:34:51.179Z,1088.00
2023-02-03T11:35:51.096Z,1093.00
2023-02-03T11:36:51.046Z,1101.00
2023-02-03T11:37:50.990Z,1103.00
2023-02-03T11:38:51.026Z,975.00
2023-02-03T11:39:50.924Z,664.00
2023-02-03T11:41:51.681Z,685.00
2023-02-03T11:43:53.139Z,610.00
2023-02-03T11:44:51.706Z,556.00
2023-02-03T12:00:52.573Z,864.00
2023-02-03T12:09:17.365Z,891.00
2023-02-03T12:09:54.540Z,898.00
2023-02-03T12:28:51.394Z,1140.00
2023-02-03T13:26:48.721Z,725.00
2023-02-03T13:27:48.718Z,720.00
2023-02-03T13:28:48.642Z,719.00
2023-02-03T13:29:48.659Z,717.00
2023-02-03T13:30:48.564Z,714.00
2023-02-03T13:31:48.611Z,710.00
2023-02-03T13:32:48.559Z,706.00
2023-02-03T13:33:48.455Z,704.00
2023-02-03T13:34:48.611Z,697.00
2023-02-03T13:35:48.418Z,693.00
2023-02-03T13:36:48.388Z,688.00
2023-02-03T13:37:48.359Z,687.00
2023-02-03T13:38:48.335Z,689.00
2023-02-03T13:39:48.295Z,690.00
2023-02-03T13:40:48.740Z,688.00
2023-02-03T13:41:48.216Z,687.00
2023-02-03T13:42:48.207Z,687.00
2023-02-03T13:43:48.219Z,684.00
2023-02-03T13:44:48.126Z,685.00
2023-02-03T13:45:48.078Z,683.00
2023-02-03T13:46:48.026Z,683.00
2023-02-03T13:47:47.999Z,679.00
2023-02-03T13:48:47.965Z,681.00
2023-02-03T13:49:48.744Z,680.00
2023-02-03T13:50:47.956Z,676.00
2023-02-03T13:51:47.897Z,676.00
2023-02-03T13:52:47.864Z,675.00
2023-02-03T13:53:47.874Z,672.00
2023-02-03T13:54:47.798Z,671.00
2023-02-03T13:55:47.821Z,669.00
2023-02-03T13:56:47.741Z,667.00
2023-02-03T13:57:47.713Z,668.00
2023-02-03T13:58:47.681Z,667.00
2023-02-03T13:59:47.637Z,666.00
2023-02-03T14:00:47.626Z,666.00
2023-02-03T14:01:47.599Z,665.00
2023-02-03T14:02:47.539Z,664.00
2023-02-03T14:03:47.601Z,664.00
2023-02-03T14:04:47.493Z,661.00
2023-02-03T14:05:47.450Z,662.00
2023-02-03T14:06:47.359Z,662.00
2023-02-03T14:07:47.344Z,659.00
2023-02-03T14:08:47.348Z,658.00
2023-02-03T14:09:47.356Z,656.00
2023-02-03T14:10:47.279Z,655.00
2023-02-03T14:11:47.188Z,654.00
2023-02-03T14:12:47.199Z,651.00
2023-02-03T14:13:47.736Z,650.00
2023-02-03T14:14:47.136Z,650.00
2023-02-03T14:15:47.114Z,648.00
2023-02-03T14:16:47.052Z,647.00
2023-02-03T14:17:47.017Z,648.00
2023-02-03T14:18:46.992Z,646.00
2023-02-03T14:19:46.929Z,643.00
2023-02-03T14:20:46.961Z,644.00
2023-02-03T14:21:46.869Z,645.00
2023-02-03T14:22:46.943Z,646.00
2023-02-03T14:23:46.845Z,647.00
2023-02-03T14:24:46.776Z,646.00
2023-02-03T14:25:46.793Z,642.00
2023-02-03T14:26:46.880Z,643.00
2023-02-03T14:27:46.752Z,638.00
2023-02-03T14:28:46.729Z,637.00
2023-02-03T14:29:46.646Z,637.00
2023-02-03T14:30:46.695Z,637.00
2023-02-03T14:31:46.666Z,635.00
2023-02-03T14:32:46.588Z,633.00
2023-02-03T14:33:46.544Z,630.00
2023-02-03T14:34:46.521Z,631.00
2023-02-03T14:35:46.521Z,630.00
2023-02-03T14:36:46.729Z,632.00
2023-02-03T14:37:47.233Z,632.00
2023-02-03T14:38:46.411Z,632.00
2023-02-03T14:39:46.503Z,629.00
2023-02-03T14:40:46.516Z,628.00
2023-02-03T14:41:46.442Z,626.00
2023-02-03T14:42:46.246Z,625.00
2023-02-03T14:43:46.314Z,625.00
2023-02-03T14:44:46.135Z,624.00
2023-02-03T14:45:46.088Z,623.00
2023-02-03T14:46:46.089Z,622.00
2023-02-03T14:47:46.062Z,622.00
2023-02-03T14:48:46.056Z,622.00
2023-02-03T14:49:45.969Z,622.00
2023-02-03T14:50:45.960Z,623.00
2023-02-03T14:51:45.926Z,622.00
2023-02-03T14:52:45.889Z,623.00
2023-02-03T14:53:45.922Z,624.00
2023-02-03T14:54:45.842Z,625.00
2023-02-03T14:55:45.817Z,623.00
2023-02-03T14:56:45.824Z,623.00
2023-02-03T14:57:45.738Z,619.00
2023-02-03T14:58:45.707Z,617.00
2023-02-03T14:59:45.729Z,611.00
2023-02-03T15:00:45.638Z,610.00
2023-02-03T15:01:45.734Z,612.00
2023-02-03T15:02:45.595Z,612.00
2023-02-03T15:03:45.584Z,613.00
2023-02-03T15:04:45.647Z,612.00
2023-02-03T15:05:45.567Z,611.00
2023-02-03T15:06:45.497Z,612.00
2023-02-03T15:07:45.529Z,609.00
2023-02-03T15:08:45.510Z,608.00
2023-02-03T15:09:45.410Z,605.00
2023-02-03T15:10:45.374Z,603.00
2023-02-03T15:11:45.352Z,604.00
2023-02-03T15:12:45.316Z,603.00
2023-02-03T15:13:45.289Z,601.00
2023-02-03T15:14:45.241Z,600.00
2023-02-03T15:15:45.215Z,600.00
2023-02-03T15:16:45.232Z,596.00
2023-02-03T15:17:45.181Z,595.00
2023-02-03T15:18:45.155Z,596.00
2023-02-03T15:19:45.129Z,596.00
2023-02-03T15:20:45.093Z,596.00
2023-02-03T15:21:45.135Z,592.00
2023-02-03T15:22:45.032Z,592.00
2023-02-03T15:23:44.988Z,592.00
2023-02-03T15:24:44.995Z,592.00
2023-02-03T15:25:44.961Z,594.00
2023-02-03T15:26:44.910Z,595.00
2023-02-03T15:27:44.957Z,594.00
2023-02-03T15:28:44.879Z,594.00
2023-02-03T15:29:44.827Z,591.00
2023-02-03T15:30:44.862Z,589.00
2023-02-03T15:31:45.040Z,586.00
2023-02-03T15:32:44.733Z,581.00
2023-02-03T15:33:44.733Z,583.00
2023-02-03T15:34:44.648Z,584.00
2023-02-03T15:35:44.668Z,583.00
2023-02-03T15:36:44.629Z,584.00
2023-02-03T15:37:44.627Z,582.00
2023-02-03T15:38:44.555Z,584.00
2023-02-03T15:39:44.563Z,584.00
2023-02-03T15:40:44.486Z,582.00
2023-02-03T15:41:44.464Z,582.00
2023-02-03T15:42:44.500Z,581.00
2023-02-03T15:43:44.391Z,576.00
2023-02-03T15:44:44.366Z,577.00
2023-02-03T15:45:44.366Z,577.00
2023-02-03T15:46:44.411Z,576.00
2023-02-03T15:47:44.305Z,576.00
2023-02-03T15:48:44.277Z,573.00
2023-02-03T15:49:44.249Z,572.00
2023-02-03T15:50:44.220Z,573.00
2023-02-03T15:51:44.443Z,572.00
2023-02-03T15:52:44.206Z,575.00
2023-02-03T15:53:47.525Z,575.00
2023-02-03T15:54:44.115Z,578.00
2023-02-03T15:55:44.061Z,581.00
2023-02-03T15:56:44.031Z,579.00
2023-02-03T15:57:44.039Z,578.00
2023-02-03T15:58:43.943Z,576.00
2023-02-03T15:59:43.938Z,575.00
2023-02-03T16:00:43.958Z,575.00
2023-02-03T16:01:43.947Z,577.00
2023-02-03T16:02:43.940Z,575.00
2023-02-03T16:03:43.858Z,577.00
2023-02-03T16:04:43.968Z,576.00
2023-02-03T16:05:43.787Z,575.00
2023-02-03T16:06:43.726Z,575.00
2023-02-03T16:07:43.725Z,574.00
2023-02-03T16:08:43.688Z,571.00
2023-02-03T16:09:43.645Z,569.00
2023-02-03T16:10:43.620Z,568.00
2023-02-03T16:11:43.619Z,566.00
2023-02-03T16:12:43.558Z,564.00
2023-02-03T16:13:43.519Z,564.00
2023-02-03T16:14:43.490Z,566.00
2023-02-03T16:15:43.473Z,567.00
2023-02-03T16:16:52.141Z,565.00
2023-02-03T16:17:44.463Z,566.00
2023-02-03T16:18:43.370Z,564.00
2023-02-03T16:19:43.342Z,564.00
2023-02-03T16:20:43.293Z,562.00
2023-02-03T16:21:43.305Z,561.00
2023-02-03T16:22:43.267Z,562.00
2023-02-03T16:23:43.228Z,562.00
2023-02-03T16:24:43.189Z,559.00
2023-02-03T16:25:43.123Z,558.00
2023-02-03T16:26:43.098Z,557.00
2023-02-03T16:27:43.148Z,556.00
2023-02-03T16:28:43.038Z,557.00
2023-02-03T16:29:42.998Z,555.00
2023-02-03T16:30:43.016Z,556.00
2023-02-03T16:31:42.981Z,556.00
2023-02-03T16:32:42.901Z,554.00
2023-02-03T16:33:42.867Z,554.00
2023-02-03T16:34:42.834Z,552.00
2023-02-03T16:35:42.836Z,553.00
2023-02-03T16:36:42.786Z,554.00
2023-02-03T16:37:42.809Z,554.00
2023-02-03T16:38:42.745Z,552.00
2023-02-03T16:39:44.992Z,550.00
2023-02-03T16:40:42.770Z,549.00
2023-02-03T16:41:42.738Z,549.00
2023-02-03T16:42:42.685Z,547.00
2023-02-03T16:43:42.684Z,547.00
2023-02-03T16:44:42.624Z,544.00
2023-02-03T16:45:42.687Z,542.00
2023-02-03T16:46:42.600Z,542.00
2023-02-03T16:47:42.631Z,543.00
2023-02-03T16:48:42.618Z,543.00
2023-02-03T16:49:42.655Z,543.00
2023-02-03T16:50:42.658Z,541.00
2023-02-03T16:51:42.722Z,543.00
2023-02-03T16:52:42.757Z,544.00
2023-02-03T16:53:42.793Z,544.00
2023-02-03T16:54:42.800Z,542.00
2023-02-03T16:55:42.818Z,539.00
2023-02-03T16:56:42.843Z,539.00
2023-02-03T16:57:42.876Z,539.00
2023-02-03T16:58:42.916Z,538.00
2023-02-03T16:59:42.938Z,537.00
2023-02-03T17:00:43.007Z,536.00
2023-02-03T17:01:43.039Z,538.00
2023-02-03T17:02:43.008Z,539.00
2023-02-03T17:03:43.118Z,539.00
2023-02-03T17:04:43.068Z,541.00
2023-02-03T17:05:43.126Z,541.00
2023-02-03T17:06:43.130Z,537.00
2023-02-03T17:07:43.181Z,535.00
2023-02-03T17:08:43.212Z,536.00
2023-02-03T17:09:43.269Z,534.00
2023-02-03T17:10:43.292Z,533.00
2023-02-03T17:11:43.286Z,533.00
2023-02-03T17:12:43.334Z,531.00
2023-02-03T17:13:43.368Z,531.00
2023-02-03T17:14:43.390Z,532.00
2023-02-03T17:15:43.435Z,532.00
2023-02-03T17:16:43.502Z,533.00
2023-02-03T17:17:43.485Z,532.00
2023-02-03T17:18:43.519Z,530.00
2023-02-03T17:19:43.555Z,530.00
2023-02-03T17:20:43.578Z,532.00
2023-02-03T17:21:43.634Z,534.00
2023-02-03T17:22:43.647Z,535.00
2023-02-03T17:54:23.935Z,534.00
2023-02-03T18:02:23.855Z,525.00
2023-02-03T18:03:23.819Z,525.00
2023-02-03T18:04:23.785Z,526.00
2023-02-03T18:05:23.771Z,527.00
2023-02-03T18:06:23.733Z,525.00
2023-02-03T18:07:23.742Z,524.00
2023-02-03T18:08:25.213Z,524.00
2023-02-03T18:11:23.654Z,524.00
2023-02-03T18:28:23.299Z,514.00
2023-02-03T18:43:23.025Z,504.00
2023-02-03T18:52:22.849Z,501.00
2023-02-03T19:29:22.187Z,492.00
2023-02-03T21:27:19.715Z,465.00
2023-02-03T21:28:19.766Z,464.00
2023-02-03T21:29:19.833Z,462.00
2023-02-03T21:30:19.850Z,459.00
2023-02-03T21:31:20.019Z,459.00
2023-02-03T21:32:19.937Z,459.00
2023-02-03T21:33:19.975Z,456.00
2023-02-03T21:34:19.996Z,455.00
2023-02-03T21:35:20.045Z,454.00
2023-02-03T21:36:20.123Z,452.00
2023-02-03T21:37:20.149Z,452.00
2023-02-03T21:38:20.247Z,452.00
2023-02-03T21:39:20.245Z,451.00
2023-02-03T21:40:20.266Z,451.00
2023-02-03T21:41:20.327Z,451.00
2023-02-03T21:42:20.375Z,455.00
2023-02-03T21:43:20.434Z,455.00
2023-02-03T21:44:20.491Z,452.00
2023-02-03T21:45:20.523Z,454.00
2023-02-03T21:46:20.547Z,452.00
2023-02-03T21:47:20.609Z,453.00
2023-02-03T21:48:20.639Z,453.00
2023-02-03T21:49:20.693Z,454.00
2023-02-03T21:50:20.701Z,452.00
2023-02-03T21:51:20.776Z,451.00
2023-02-03T21:52:20.790Z,450.00
2023-02-03T21:53:20.850Z,451.00
2023-02-03T21:54:20.903Z,451.00
2023-02-03T21:55:21.055Z,451.00
2023-02-03T21:56:20.978Z,451.00
2023-02-03T21:57:20.973Z,454.00
2023-02-03T21:58:21.233Z,453.00
2023-02-03T21:59:28.202Z,453.00
2023-02-03T22:00:21.048Z,452.00
2023-02-03T22:01:21.092Z,452.00
2023-02-03T22:02:21.013Z,450.00
2023-02-03T22:03:21.019Z,449.00
2023-02-03T22:04:20.987Z,451.00
2023-02-03T22:05:20.996Z,452.00
2023-02-03T22:06:20.969Z,450.00
2023-02-03T22:07:20.938Z,451.00
2023-02-03T22:08:20.930Z,451.00
2023-02-03T22:09:20.935Z,450.00
2023-02-03T22:10:20.882Z,452.00
2023-02-03T22:11:20.888Z,453.00
2023-02-03T22:12:20.852Z,453.00
2023-02-03T22:13:20.844Z,454.00
2023-02-03T22:14:20.837Z,453.00
2023-02-03T22:15:20.792Z,452.00
2023-02-03T22:16:20.851Z,450.00
2023-02-03T22:17:20.801Z,454.00
2023-02-03T22:18:20.776Z,454.00
2023-02-03T22:19:20.729Z,453.00
2023-02-03T22:20:20.727Z,452.00
2023-02-03T22:21:20.693Z,453.00
2023-02-03T22:22:20.649Z,454.00
2023-02-03T22:23:20.657Z,453.00
2023-02-03T22:24:20.657Z,452.00
2023-02-03T22:25:20.599Z,452.00
2023-02-03T22:26:20.589Z,452.00
2023-02-03T22:27:20.534Z,450.00
2023-02-03T22:28:20.552Z,450.00
2023-02-03T22:29:20.533Z,451.00
2023-02-03T22:30:20.493Z,450.00
2023-02-03T22:31:20.642Z,450.00
2023-02-03T22:32:20.402Z,449.00
2023-02-03T22:33:20.403Z,449.00
2023-02-03T22:34:20.362Z,451.00
2023-02-03T22:35:20.380Z,449.00
2023-02-03T22:36:20.330Z,447.00
2023-02-03T22:37:20.325Z,447.00
2023-02-03T22:38:20.309Z,447.00
2023-02-03T22:39:20.254Z,446.00
2023-02-03T22:40:20.308Z,446.00
2023-02-03T22:41:20.236Z,446.00
2023-02-03T22:42:20.162Z,444.00
2023-02-03T22:43:20.167Z,446.00
2023-02-03T22:44:20.808Z,442.00
2023-02-03T22:45:20.116Z,442.00
2023-02-03T22:46:20.207Z,442.00
2023-02-03T22:47:20.086Z,443.00
2023-02-03T22:48:20.084Z,445.00
2023-02-03T22:49:20.101Z,446.00
2023-02-03T22:50:27.404Z,444.00
2023-02-03T22:51:21.034Z,445.00
2023-02-03T22:52:20.013Z,445.00
2023-02-03T22:53:20.012Z,443.00
2023-02-03T22:54:20.013Z,442.00
2023-02-03T22:55:19.978Z,442.00
2023-02-03T22:56:19.940Z,441.00
2023-02-03T22:57:19.946Z,438.00
2023-02-03T22:58:19.945Z,437.00
2023-02-03T22:59:19.893Z,439.00
2023-02-03T23:00:19.984Z,443.00
2023-02-03T23:01:19.887Z,444.00
2023-02-03T23:02:19.867Z,443.00
2023-02-03T23:03:19.874Z,445.00
2023-02-03T23:04:19.850Z,444.00
2023-02-03T23:05:19.818Z,443.00
2023-02-03T23:06:19.802Z,440.00
2023-02-03T23:07:19.805Z,440.00
2023-02-03T23:08:19.752Z,441.00
2023-02-03T23:09:19.793Z,438.00
2023-02-03T23:10:19.739Z,438.00
2023-02-03T23:11:19.732Z,439.00
2023-02-03T23:12:19.728Z,440.00
2023-02-03T23:13:19.688Z,438.00
2023-02-03T23:14:19.681Z,437.00
2023-02-03T23:15:19.652Z,434.00
2023-02-03T23:16:19.721Z,435.00
2023-02-03T23:17:19.664Z,435.00
2023-02-03T23:18:19.615Z,436.00
2023-02-03T23:19:19.625Z,434.00
2023-02-03T23:20:19.614Z,434.00
2023-02-03T23:21:19.607Z,435.00
2023-02-03T23:22:19.561Z,434.00
2023-02-03T23:23:19.551Z,432.00
2023-02-03T23:24:19.544Z,433.00
2023-02-03T23:25:19.743Z,436.00
2023-02-03T23:26:19.517Z,436.00
2023-02-03T23:27:19.492Z,438.00
2023-02-03T23:28:19.533Z,439.00
2023-02-03T23:29:19.546Z,440.00
2023-02-03T23:30:19.469Z,439.00
2023-02-03T23:31:19.537Z,439.00
2023-02-03T23:32:19.402Z,439.00
2023-02-03T23:33:19.400Z,440.00
2023-02-03T23:34:19.368Z,440.00
2023-02-03T23:35:19.371Z,443.00
2023-02-03T23:36:19.330Z,442.00
2023-02-03T23:37:19.321Z,441.00
2023-02-03T23:38:19.304Z,443.00
2023-02-03T23:39:19.293Z,443.00
2023-02-03T23:40:19.305Z,441.00
2023-02-03T23:41:19.304Z,442.00